D/T METAR WX W/DIR W/SPE G/SPE TEMP DEWP
16/01/19 04:20 EGFF 160420Z AUTO 24011KT 9999 SCT016 09/08 Q1008 WSW (240°) 12.7mph 9°C 8°C
16/01/19 03:50 EGFF 160350Z AUTO 24011KT 9999 SCT016 09/08 Q1008 WSW (240°) 12.7mph 9°C 8°C
16/01/19 03:20 EGFF 160320Z AUTO 23010KT 9999 SCT024 SCT048 09/08 Q1009 SW (230°) 11.5mph 9°C 8°C
16/01/19 02:50 EGFF 160250Z AUTO 23011KT 9999 FEW016 BKN045 09/08 Q1009 SW (230°) 12.7mph 9°C 8°C
16/01/19 02:20 EGFF 160220Z AUTO 24012KT 9999 BKN015 OVC037 09/08 Q1010 WSW (240°) 13.8mph 9°C 8°C
16/01/19 01:50 EGFF 160150Z AUTO 23012KT 9999 OVC013 09/08 Q1010 SW (230°) 13.8mph 9°C 8°C
16/01/19 01:20 EGFF 160120Z AUTO 23010KT 9999 BKN014 OVC044 09/08 Q1011 SW (230°) 11.5mph 9°C 8°C
16/01/19 00:50 EGFF 160050Z AUTO 24010KT 9999 SCT015 BKN026 BKN032 09/08 Q1011 WSW (240°) 11.5mph 9°C 8°C
16/01/19 00:20 EGFF 160020Z AUTO 24011KT 9999 BKN015 OVC039 09/08 Q1012 WSW (240°) 12.7mph 9°C 8°C
15/01/19 23:50 EGFF 152350Z AUTO 24009KT 9999 BKN014 OVC040 09/08 Q1012 WSW (240°) 10.4mph 9°C 8°C
15/01/19 23:20 EGFF 152320Z AUTO 24010KT 9999 OVC013 09/08 Q1013 WSW (240°) 11.5mph 9°C 8°C
15/01/19 22:50 EGFF 152250Z AUTO 24011KT 9999 OVC013 09/07 Q1013 WSW (240°) 12.7mph 9°C 7°C
15/01/19 22:20 EGFF 152220Z AUTO 24010KT 9999 OVC013 09/07 Q1013 WSW (240°) 11.5mph 9°C 7°C
15/01/19 21:50 EGFF 152150Z AUTO 24009KT 9999 OVC015 09/07 Q1014 WSW (240°) 10.4mph 9°C 7°C
15/01/19 21:20 EGFF 152120Z AUTO 23009KT 9999 OVC016 09/07 Q1014 SW (230°) 10.4mph 9°C 7°C
15/01/19 20:50 EGFF 152050Z AUTO 24009KT 9999 BKN017 OVC022 08/07 Q1014 WSW (240°) 10.4mph 8°C 7°C
15/01/19 20:20 EGFF 152020Z AUTO 24010KT 9999 BKN018 OVC023 08/07 Q1015 WSW (240°) 11.5mph 8°C 7°C
15/01/19 19:50 EGFF 151950Z AUTO 24010KT 9999 BKN017 OVC023 08/07 Q1015 WSW (240°) 11.5mph 8°C 7°C
15/01/19 19:20 EGFF 151920Z AUTO 24008KT 9999 OVC022 08/07 Q1015 WSW (240°) 9.2mph 8°C 7°C
15/01/19 18:50 EGFF 151850Z AUTO 24007KT 9999 OVC025 08/07 Q1016 WSW (240°) 8.1mph 8°C 7°C
15/01/19 18:20 EGFF 151820Z AUTO 23006KT 9999 FEW020 OVC025 08/08 Q1016 SW (230°) 6.9mph 8°C 8°C
15/01/19 17:20 EGFF 151720Z 26011KT 5000 -DZ FEW002 BKN003 08/08 Q1016 -DZ W (260°) 12.7mph 8°C 8°C
15/01/19 16:50 EGFF 151650Z 26012KT 4000 -DZ BKN002 08/08 Q1017 -DZ W (260°) 13.8mph 8°C 8°C
15/01/19 16:20 EGFF 151620Z 26010KT 4500 -DZ FEW002 BKN009 08/08 Q1017 RERA -DZ W (260°) 11.5mph 8°C 8°C
15/01/19 15:50 EGFF 151550Z 26010KT 3000 -DZ RA BKN004 08/08 Q1017 REDZ -DZ RA W (260°) 11.5mph 8°C 8°C
15/01/19 14:50 EGFF 151450Z 26010KT 9999 7000SE VCSH FEW004 SCT008 BKN017 09/08 Q1018 VCSH W (260°) 11.5mph 9°C 8°C
15/01/19 14:20 EGFF 151420Z 26013KT 9999 7000E VCSH SCT008 BKN020 08/08 Q1018 VCSH W (260°) 15.0mph 8°C 8°C
15/01/19 13:50 EGFF 151350Z AUTO 27013KT 9999 BKN002 BKN010 OVC032 08/08 Q1018 W (270°) 15.0mph 8°C 8°C
15/01/19 13:20 EGFF 151320Z 26015KT 3400 -DZ BKN003 08/08 Q1019 REDZ -DZ W (260°) 17.3mph 8°C 8°C
15/01/19 12:50 EGFF 151250Z 26011KT 3000 DZ SCT003 BKN005 09/09 Q1019 RERA REDZ DZ W (260°) 12.7mph 9°C 9°C
15/01/19 12:20 EGFF 151220Z 27008KT 3500 RADZ SCT004 BKN007 09/09 Q1019 RA DZ W (270°) 9.2mph 9°C 9°C
15/01/19 11:50 EGFF 151150Z 27010KT 9999 6000E -DZ FEW003 SCT005 BKN012 09/09 Q1020 -DZ W (270°) 11.5mph 9°C 9°C
15/01/19 11:20 EGFF 151120Z 27010KT 7000 -DZ FEW004 SCT006 BKN014 09/09 Q1020 REDZ -DZ W (270°) 11.5mph 9°C 9°C
15/01/19 10:50 EGFF 151050Z AUTO 26010KT 9999 BKN010 OVC019 09/09 Q1020 W (260°) 11.5mph 9°C 9°C
15/01/19 09:50 EGFF 150950Z AUTO 27010KT 9999 OVC020 09/08 Q1020 REDZ W (270°) 11.5mph 9°C 8°C
15/01/19 09:20 EGFF 150920Z 27012KT 8000 DZ SCT003 BKN007 08/08 Q1020 REDZ DZ W (270°) 13.8mph 8°C 8°C
15/01/19 08:50 EGFF 150850Z 26012KT 4000 -DZ BKN004 BKN010 08/08 Q1020 REDZ -DZ W (260°) 13.8mph 8°C 8°C
15/01/19 08:20 EGFF 150820Z 25010KT 9999 6000N BKN012 BKN018 BKN022 08/08 Q1020 WSW (250°) 11.5mph 8°C 8°C
15/01/19 07:50 EGFF 150750Z 25010KT 9999 SCT021 BKN025 BKN029 08/08 Q1020 WSW (250°) 11.5mph 8°C 8°C
15/01/19 07:20 EGFF 150720Z 26009KT 9999 BKN004 OVC020 08/08 Q1021 W (260°) 10.4mph 8°C 8°C
15/01/19 06:50 EGFF 150650Z AUTO 26007KT 8000 BKN003 BKN010 OVC020 08/08 Q1021 RERA W (260°) 8.1mph 8°C 8°C
15/01/19 06:20 EGFF 150620Z AUTO 26009KT 9999 SCT008 BKN013 OVC033 08/08 Q1021 W (260°) 10.4mph 8°C 8°C
15/01/19 05:50 EGFF 150550Z AUTO 26008KT 9999 BKN007 BKN011 OVC036 08/08 Q1021 REDZ W (260°) 9.2mph 8°C 8°C
15/01/19 04:50 EGFF 150450Z AUTO 27008KT 9999 FEW008 BKN015 OVC024 07/07 Q1022 REDZ W (270°) 9.2mph 7°C 7°C
15/01/19 04:20 EGFF 150420Z AUTO 27011KT 9999 FEW020 OVC027 08/07 Q1022 W (270°) 12.7mph 8°C 7°C
15/01/19 03:50 EGFF 150350Z AUTO 28012KT 9999 -RA OVC023 08/06 Q1022 -RA W (280°) 13.8mph 8°C 6°C
15/01/19 02:50 EGFF 150250Z AUTO 26010KT 9999 OVC026 08/06 Q1023 W (260°) 11.5mph 8°C 6°C
15/01/19 02:20 EGFF 150220Z AUTO 27008KT 9999 OVC023 08/06 Q1023 W (270°) 9.2mph 8°C 6°C
15/01/19 01:20 EGFF 150120Z AUTO 28009KT 9999 BKN019 OVC023 08/06 Q1023 W (280°) 10.4mph 8°C 6°C
15/01/19 00:50 EGFF 150050Z AUTO 27010KT 9999 OVC023 08/06 Q1023 W (270°) 11.5mph 8°C 6°C
15/01/19 00:20 EGFF 150020Z AUTO 27010KT 9999 OVC025 08/06 Q1023 W (270°) 11.5mph 8°C 6°C
14/01/19 23:50 EGFF 142350Z AUTO 28009KT 9999 OVC025 07/05 Q1024 W (280°) 10.4mph 7°C 5°C
14/01/19 23:20 EGFF 142320Z AUTO 28008KT 9999 BKN026 05/03 Q1024 W (280°) 9.2mph 5°C 3°C
14/01/19 22:50 EGFF 142250Z AUTO VRB03KT 9999 SCT028 04/02 Q1024 N (0°) 3.5mph 4°C 2°C
14/01/19 22:20 EGFF 142220Z AUTO 29007KT 9999 BKN028 06/03 Q1024 WNW (290°) 8.1mph 6°C 3°C
14/01/19 21:50 EGFF 142150Z AUTO 28006KT 9999 BKN029 05/02 Q1024 W (280°) 6.9mph 5°C 2°C
14/01/19 21:20 EGFF 142120Z AUTO 28007KT 9999 FEW030 05/02 Q1024 W (280°) 8.1mph 5°C 2°C
14/01/19 20:50 EGFF 142050Z AUTO 28007KT 9999 NCD 05/02 Q1024 W (280°) 8.1mph 5°C 2°C
14/01/19 20:20 EGFF 142020Z AUTO 28007KT 9999 FEW036 05/02 Q1024 W (280°) 8.1mph 5°C 2°C
14/01/19 19:50 EGFF 141950Z AUTO 29006KT 9999 OVC036 06/03 Q1024 WNW (290°) 6.9mph 6°C 3°C
14/01/19 18:50 EGFF 141850Z AUTO 30007KT 9999 OVC034 07/04 Q1024 WNW (300°) 8.1mph 7°C 4°C
14/01/19 18:20 EGFF 141820Z AUTO 29008KT 9999 OVC033 07/04 Q1024 WNW (290°) 9.2mph 7°C 4°C
14/01/19 17:50 EGFF 141750Z AUTO 30007KT 9999 OVC026 07/04 Q1024 WNW (300°) 8.1mph 7°C 4°C
14/01/19 17:20 EGFF 141720Z AUTO 29004KT 9999 OVC032 07/04 Q1024 WNW (290°) 4.6mph 7°C 4°C
14/01/19 16:50 EGFF 141650Z AUTO 31007KT 9999 OVC036 07/04 Q1024 NW (310°) 8.1mph 7°C 4°C
14/01/19 15:50 EGFF 141550Z AUTO 31008KT 9999 OVC036 07/04 Q1024 NW (310°) 9.2mph 7°C 4°C
14/01/19 15:20 EGFF 141520Z AUTO 30012KT 9999 OVC032 08/04 Q1024 WNW (300°) 13.8mph 8°C 4°C
14/01/19 14:50 EGFF 141450Z AUTO 30013KT 9999 OVC034 08/05 Q1024 WNW (300°) 15.0mph 8°C 5°C
14/01/19 14:20 EGFF 141420Z AUTO 29011KT 9999 OVC033 08/04 Q1023 WNW (290°) 12.7mph 8°C 4°C
14/01/19 13:50 EGFF 141350Z AUTO 30011KT 9999 OVC032 09/04 Q1023 WNW (300°) 12.7mph 9°C 4°C
14/01/19 13:20 EGFF 141320Z AUTO 31009KT 9999 OVC034 09/04 Q1024 NW (310°) 10.4mph 9°C 4°C
14/01/19 12:20 EGFF 141220Z AUTO 31007KT 9999 OVC032 09/04 Q1024 NW (310°) 8.1mph 9°C 4°C
14/01/19 11:50 EGFF 141150Z AUTO 31012KT 9999 OVC032 08/03 Q1024 NW (310°) 13.8mph 8°C 3°C
14/01/19 10:50 EGFF 141050Z AUTO 30008KT 9999 OVC034 08/04 Q1023 WNW (300°) 9.2mph 8°C 4°C
14/01/19 10:20 EGFF 141020Z AUTO 30009KT 9999 BKN035 08/04 Q1023 WNW (300°) 10.4mph 8°C 4°C
14/01/19 09:50 EGFF 140950Z AUTO 30008KT 9999 BKN033 08/04 Q1023 WNW (300°) 9.2mph 8°C 4°C
14/01/19 09:20 EGFF 140920Z AUTO 29005KT 9999 OVC033 07/04 Q1023 WNW (290°) 5.8mph 7°C 4°C
14/01/19 08:20 EGFF 140820Z AUTO 29008KT 9999 BKN035 07/04 Q1023 WNW (290°) 9.2mph 7°C 4°C
14/01/19 07:50 EGFF 140750Z AUTO 30010KT 9999 OVC033 07/04 Q1022 WNW (300°) 11.5mph 7°C 4°C
14/01/19 07:20 EGFF 140720Z AUTO 30015KT 9999 OVC032 08/04 Q1021 WNW (300°) 17.3mph 8°C 4°C
14/01/19 06:50 EGFF 140650Z AUTO 30011KT 9999 OVC033 07/04 Q1021 WNW (300°) 12.7mph 7°C 4°C
14/01/19 06:20 EGFF 140620Z AUTO 29011KT 9999 OVC033 08/04 Q1021 WNW (290°) 12.7mph 8°C 4°C
14/01/19 05:50 EGFF 140550Z AUTO 27007KT 9999 BKN031 OVC041 08/04 Q1021 W (270°) 8.1mph 8°C 4°C
14/01/19 05:20 EGFF 140520Z AUTO 30009KT 9999 OVC034 08/04 Q1021 WNW (300°) 10.4mph 8°C 4°C
14/01/19 04:50 EGFF 140450Z AUTO 29010KT 9999 BKN034 OVC043 08/04 Q1021 WNW (290°) 11.5mph 8°C 4°C
14/01/19 04:20 EGFF 140420Z AUTO 31009KT 9999 OVC036 08/03 Q1021 NW (310°) 10.4mph 8°C 3°C
14/01/19 03:50 EGFF 140350Z AUTO 30010KT 9999 OVC037 07/03 Q1020 WNW (300°) 11.5mph 7°C 3°C
14/01/19 03:20 EGFF 140320Z AUTO 29007KT 9999 OVC036 07/03 Q1020 WNW (290°) 8.1mph 7°C 3°C
14/01/19 02:50 EGFF 140250Z AUTO 30010KT 9999 OVC036 08/03 Q1020 WNW (300°) 11.5mph 8°C 3°C
14/01/19 02:20 EGFF 140220Z AUTO 30010KT 9999 OVC039 08/03 Q1020 WNW (300°) 11.5mph 8°C 3°C
14/01/19 01:50 EGFF 140150Z AUTO 32010KT 9999 OVC040 08/03 Q1020 NW (320°) 11.5mph 8°C 3°C
14/01/19 01:20 EGFF 140120Z AUTO 30004KT 280V340 9999 BKN037 08/04 Q1019 WNW (300°) 4.6mph 8°C 4°C
14/01/19 00:50 EGFF 140050Z AUTO 30011KT 9999 BKN038 08/03 Q1019 WNW (300°) 12.7mph 8°C 3°C
14/01/19 00:20 EGFF 140020Z AUTO 28007KT 260V320 9999 BKN039 08/03 Q1019 W (280°) 8.1mph 8°C 3°C
13/01/19 23:50 EGFF 132350Z AUTO 30011KT 9999 OVC039 08/03 Q1019 WNW (300°) 12.7mph 8°C 3°C
13/01/19 23:20 EGFF 132320Z AUTO 30011KT 9999 BKN040 08/03 Q1018 WNW (300°) 12.7mph 8°C 3°C
13/01/19 22:50 EGFF 132250Z AUTO 31010KT 9999 BKN040 08/03 Q1018 NW (310°) 11.5mph 8°C 3°C
13/01/19 22:20 EGFF 132220Z AUTO VRB04KT 9999 NCD 08/03 Q1018 N (0°) 4.6mph 8°C 3°C
13/01/19 21:50 EGFF 132150Z AUTO 32010KT 9999 NCD 08/04 Q1017 NW (320°) 11.5mph 8°C 4°C
13/01/19 20:50 EGFF 132050Z AUTO 32015KT 9999 FEW036 09/07 Q1016 NW (320°) 17.3mph 9°C 7°C
13/01/19 20:20 EGFF 132020Z AUTO 31018KT 9999 SCT028 09/08 Q1015 NW (310°) 20.7mph 9°C 8°C
13/01/19 19:50 EGFF 131950Z AUTO 30020KT 9999 BKN030 10/08 Q1015 WNW (300°) 23.0mph 10°C 8°C
13/01/19 19:20 EGFF 131920Z AUTO 30021KT 9999 BKN026 OVC036 10/09 Q1015 WNW (300°) 24.2mph 10°C 9°C
13/01/19 18:50 EGFF 131850Z AUTO 29018KT 9999 SCT023 OVC031 10/09 Q1015 WNW (290°) 20.7mph 10°C 9°C
13/01/19 18:20 EGFF 131820Z AUTO 29019KT 9999 SCT020 BKN024 OVC029 10/09 Q1015 WNW (290°) 21.9mph 10°C 9°C
13/01/19 17:50 EGFF 131750Z AUTO 29019KT 9999 BKN022 OVC027 10/09 Q1015 WNW (290°) 21.9mph 10°C 9°C
13/01/19 16:50 EGFF 131650Z AUTO 29017KT 9999 BKN018 OVC024 10/09 Q1015 WNW (290°) 19.6mph 10°C 9°C
13/01/19 16:20 EGFF 131620Z AUTO 29019KT 9999 BKN016 OVC023 10/09 Q1015 WNW (290°) 21.9mph 10°C 9°C
13/01/19 15:50 EGFF 131550Z AUTO 28016KT 9999 BKN008 OVC012 10/09 Q1015 W (280°) 18.4mph 10°C 9°C
13/01/19 15:20 EGFF 131520Z AUTO 29016KT 9999 BKN007 OVC011 09/09 Q1015 WNW (290°) 18.4mph 9°C 9°C
13/01/19 14:50 EGFF 131450Z AUTO 28016KT 9999 OVC007 09/09 Q1015 W (280°) 18.4mph 9°C 9°C
13/01/19 14:20 EGFF 131420Z AUTO 28017KT 9999 OVC007 09/09 Q1015 W (280°) 19.6mph 9°C 9°C
13/01/19 13:50 EGFF 131350Z AUTO 28016KT 8000 -RA OVC006 09/09 Q1016 REDZ -RA W (280°) 18.4mph 9°C 9°C
13/01/19 13:20 EGFF 131320Z 27014KT 4000 DZ SCT007 BKN008 09/09 Q1016 DZ W (270°) 16.1mph 9°C 9°C
13/01/19 12:20 EGFF 131220Z AUTO 27017KT 7000 BKN008 OVC013 09/09 Q1017 W (270°) 19.6mph 9°C 9°C
13/01/19 11:50 EGFF 131150Z AUTO 27020G31KT 9999 OVC011 10/09 Q1017 W (270°) 23.0mph 35.7mph 10°C 9°C
13/01/19 11:20 EGFF 131120Z AUTO 26019KT 9999 OVC010 09/09 Q1018 W (260°) 21.9mph 9°C 9°C
13/01/19 10:20 EGFF 131020Z AUTO 27018KT 9999 FEW012 BKN016 BKN029 10/09 Q1018 W (270°) 20.7mph 10°C 9°C
13/01/19 09:50 EGFF 130950Z AUTO 27021KT 9999 SCT009 BKN016 09/09 Q1018 W (270°) 24.2mph 9°C 9°C
13/01/19 09:20 EGFF 130920Z AUTO 27018G28KT 9999 FEW008 SCT012 BKN017 09/09 Q1018 W (270°) 20.7mph 32.2mph 9°C 9°C
13/01/19 08:50 EGFF 130850Z AUTO 27018G29KT 9999 SCT009 BKN017 09/09 Q1019 W (270°) 20.7mph 33.4mph 9°C 9°C
13/01/19 08:20 EGFF 130820Z AUTO 27019G30KT 9999 BKN016 BKN021 OVC026 09/09 Q1019 W (270°) 21.9mph 34.5mph 9°C 9°C
13/01/19 07:50 EGFF 130750Z AUTO 28020G32KT 9999 FEW009 BKN013 BKN022 09/09 Q1019 W (280°) 23.0mph 36.8mph 9°C 9°C
13/01/19 07:20 EGFF 130720Z AUTO 27017KT 9999 BKN012 OVC019 09/09 Q1019 W (270°) 19.6mph 9°C 9°C
13/01/19 06:50 EGFF 130650Z AUTO 28017G27KT 9999 BKN013 OVC020 09/09 Q1019 W (280°) 19.6mph 31.1mph 9°C 9°C
13/01/19 06:20 EGFF 130620Z AUTO 27015KT 9999 BKN010 OVC018 09/09 Q1019 W (270°) 17.3mph 9°C 9°C
13/01/19 05:50 EGFF 130550Z AUTO 27016KT 9999 SCT008 BKN012 BKN016 09/09 Q1020 W (270°) 18.4mph 9°C 9°C
13/01/19 05:20 EGFF 130520Z AUTO 27016KT 9999 BKN006 OVC014 09/09 Q1020 W (270°) 18.4mph 9°C 9°C
13/01/19 04:20 EGFF 130420Z AUTO 28017KT 9999 OVC004 09/09 Q1021 W (280°) 19.6mph 9°C 9°C
13/01/19 03:50 EGFF 130350Z AUTO 29018KT 9999 OVC004 09/09 Q1021 WNW (290°) 20.7mph 9°C 9°C
13/01/19 03:20 EGFF 130320Z AUTO 29017KT 9999 OVC004 09/09 Q1021 WNW (290°) 19.6mph 9°C 9°C
13/01/19 02:50 EGFF 130250Z AUTO 28014KT 9999 OVC005 09/09 Q1021 W (280°) 16.1mph 9°C 9°C
13/01/19 02:20 EGFF 130220Z AUTO 28014KT 9999 OVC007 10/09 Q1021 W (280°) 16.1mph 10°C 9°C
13/01/19 01:50 EGFF 130150Z AUTO 28015G27KT 9999 OVC008 10/09 Q1021 W (280°) 17.3mph 31.1mph 10°C 9°C
13/01/19 00:50 EGFF 130050Z AUTO 28016G28KT 9999 BKN007 OVC010 10/09 Q1022 W (280°) 18.4mph 32.2mph 10°C 9°C
13/01/19 00:20 EGFF 130020Z AUTO 29020G30KT 9999 OVC006 10/10 Q1022 WNW (290°) 23.0mph 34.5mph 10°C 10°C
12/01/19 23:50 EGFF 122350Z AUTO 29020KT 9999 BKN007 OVC014 10/09 Q1023 WNW (290°) 23.0mph 10°C 9°C
12/01/19 23:20 EGFF 122320Z AUTO 28016KT 9999 BKN009 BKN013 OVC017 10/09 Q1023 W (280°) 18.4mph 10°C 9°C
12/01/19 22:20 EGFF 122220Z AUTO 30016KT 9999 BKN009 OVC021 10/09 Q1023 WNW (300°) 18.4mph 10°C 9°C
12/01/19 21:50 EGFF 122150Z AUTO 29019KT 9999 OVC009 10/09 Q1023 WNW (290°) 21.9mph 10°C 9°C
12/01/19 21:20 EGFF 122120Z AUTO 29016KT 9999 BKN009 OVC012 10/09 Q1023 WNW (290°) 18.4mph 10°C 9°C
12/01/19 20:50 EGFF 122050Z AUTO 30018KT 9999 SCT008 BKN013 OVC021 10/09 Q1023 WNW (300°) 20.7mph 10°C 9°C
12/01/19 20:20 EGFF 122020Z AUTO 30020KT 9999 BKN007 OVC020 09/09 Q1023 WNW (300°) 23.0mph 9°C 9°C
12/01/19 19:50 EGFF 121950Z AUTO 29020KT 9999 BKN007 OVC021 09/09 Q1023 WNW (290°) 23.0mph 9°C 9°C